sensor_id;sensor_type;location;lat;lon;timestamp;pressure;altitude;pressure_sealevel;temperature;humidity
45403;BME280;47427;51.976;5.326;2024-01-30T00:02:29;102567.53;;;6.81;100.00
45403;BME280;47427;51.976;5.326;2024-01-30T00:05:31;102563.50;;;6.72;100.00
45403;BME280;47427;51.976;5.326;2024-01-30T00:08:34;102558.28;;;6.72;100.00
45403;BME280;47427;51.976;5.326;2024-01-30T00:11:37;102563.41;;;6.71;100.00
45403;BME280;47427;51.976;5.326;2024-01-30T00:14:43;102556.94;;;6.66;100.00
45403;BME280;47427;51.976;5.326;2024-01-30T00:18:05;102561.06;;;6.62;100.00
45403;BME280;47427;51.976;5.326;2024-01-30T00:21:06;102556.66;;;6.61;100.00
45403;BME280;47427;51.976;5.326;2024-01-30T00:24:08;102552.34;;;6.62;100.00
45403;BME280;47427;51.976;5.326;2024-01-30T00:27:11;102552.56;;;6.53;100.00
45403;BME280;47427;51.976;5.326;2024-01-30T00:30:14;102555.44;;;6.56;100.00
45403;BME280;47427;51.976;5.326;2024-01-30T00:33:17;102561.22;;;6.52;100.00
45403;BME280;47427;51.976;5.326;2024-01-30T00:36:18;102546.38;;;6.51;100.00
45403;BME280;47427;51.976;5.326;2024-01-30T00:39:21;102548.06;;;6.50;100.00
45403;BME280;47427;51.976;5.326;2024-01-30T00:42:24;102528.59;;;6.45;100.00
45403;BME280;47427;51.976;5.326;2024-01-30T00:45:27;102534.72;;;6.46;100.00
45403;BME280;47427;51.976;5.326;2024-01-30T00:48:29;102536.66;;;6.48;100.00
45403;BME280;47427;51.976;5.326;2024-01-30T00:51:32;102533.03;;;6.46;100.00
45403;BME280;47427;51.976;5.326;2024-01-30T00:54:34;102544.13;;;6.44;100.00
45403;BME280;47427;51.976;5.326;2024-01-30T00:57:37;102548.22;;;6.40;100.00
45403;BME280;47427;51.976;5.326;2024-01-30T01:00:40;102552.03;;;6.45;100.00
45403;BME280;47427;51.976;5.326;2024-01-30T01:03:42;102548.66;;;6.46;100.00
45403;BME280;47427;51.976;5.326;2024-01-30T01:06:46;102539.13;;;6.47;100.00
45403;BME280;47427;51.976;5.326;2024-01-30T01:09:48;102540.63;;;6.43;100.00
45403;BME280;47427;51.976;5.326;2024-01-30T01:12:51;102542.44;;;6.44;100.00
45403;BME280;47427;51.976;5.326;2024-01-30T01:15:53;102534.28;;;6.40;100.00
45403;BME280;47427;51.976;5.326;2024-01-30T01:18:56;102535.19;;;6.40;100.00
45403;BME280;47427;51.976;5.326;2024-01-30T01:21:58;102531.78;;;6.41;100.00
45403;BME280;47427;51.976;5.326;2024-01-30T01:25:01;102526.25;;;6.37;100.00
45403;BME280;47427;51.976;5.326;2024-01-30T01:28:03;102524.66;;;6.39;100.00
45403;BME280;47427;51.976;5.326;2024-01-30T01:31:06;102518.31;;;6.35;100.00
45403;BME280;47427;51.976;5.326;2024-01-30T01:34:13;102515.13;;;6.39;100.00
45403;BME280;47427;51.976;5.326;2024-01-30T01:37:15;102512.72;;;6.42;100.00
45403;BME280;47427;51.976;5.326;2024-01-30T01:40:17;102516.94;;;6.40;100.00
45403;BME280;47427;51.976;5.326;2024-01-30T01:43:20;102517.69;;;6.51;100.00
45403;BME280;47427;51.976;5.326;2024-01-30T01:46:23;102521.81;;;6.61;100.00
45403;BME280;47427;51.976;5.326;2024-01-30T01:49:27;102514.13;;;6.62;100.00
45403;BME280;47427;51.976;5.326;2024-01-30T01:52:30;102511.19;;;6.58;100.00
45403;BME280;47427;51.976;5.326;2024-01-30T01:55:32;102506.56;;;6.54;100.00
45403;BME280;47427;51.976;5.326;2024-01-30T01:58:37;102506.47;;;6.52;100.00
45403;BME280;47427;51.976;5.326;2024-01-30T02:01:41;102513.06;;;6.47;100.00
45403;BME280;47427;51.976;5.326;2024-01-30T02:04:43;102509.22;;;6.42;100.00
45403;BME280;47427;51.976;5.326;2024-01-30T02:07:46;102504.59;;;6.38;100.00
45403;BME280;47427;51.976;5.326;2024-01-30T02:10:49;102498.69;;;6.40;100.00
45403;BME280;47427;51.976;5.326;2024-01-30T02:13:52;102494.28;;;6.39;100.00
45403;BME280;47427;51.976;5.326;2024-01-30T02:16:55;102506.75;;;6.43;100.00
45403;BME280;47427;51.976;5.326;2024-01-30T02:19:58;102501.88;;;6.36;100.00
45403;BME280;47427;51.976;5.326;2024-01-30T02:23:02;102494.75;;;6.34;100.00
45403;BME280;47427;51.976;5.326;2024-01-30T02:26:05;102501.34;;;6.28;100.00
45403;BME280;47427;51.976;5.326;2024-01-30T02:29:08;102510.06;;;6.29;100.00
45403;BME280;47427;51.976;5.326;2024-01-30T02:32:09;102492.50;;;6.26;100.00
45403;BME280;47427;51.976;5.326;2024-01-30T02:35:12;102502.47;;;6.32;100.00
45403;BME280;47427;51.976;5.326;2024-01-30T02:38:18;102499.97;;;6.34;100.00
45403;BME280;47427;51.976;5.326;2024-01-30T02:41:21;102499.06;;;6.33;100.00
45403;BME280;47427;51.976;5.326;2024-01-30T02:44:22;102495.66;;;6.34;100.00
45403;BME280;47427;51.976;5.326;2024-01-30T02:47:25;102486.13;;;6.35;100.00
45403;BME280;47427;51.976;5.326;2024-01-30T02:50:28;102479.13;;;6.34;100.00
45403;BME280;47427;51.976;5.326;2024-01-30T02:53:31;102477.09;;;6.29;100.00
45403;BME280;47427;51.976;5.326;2024-01-30T02:56:32;102475.84;;;6.24;100.00
45403;BME280;47427;51.976;5.326;2024-01-30T02:59:35;102473.78;;;6.32;100.00
45403;BME280;47427;51.976;5.326;2024-01-30T03:02:57;102485.19;;;6.46;100.00
45403;BME280;47427;51.976;5.326;2024-01-30T03:05:59;102470.44;;;6.46;100.00
45403;BME280;47427;51.976;5.326;2024-01-30T03:09:00;102466.53;;;6.53;100.00
45403;BME280;47427;51.976;5.326;2024-01-30T03:12:04;102446.81;;;6.57;100.00
45403;BME280;47427;51.976;5.326;2024-01-30T03:15:08;102452.22;;;6.60;100.00
45403;BME280;47427;51.976;5.326;2024-01-30T03:18:12;102451.25;;;6.71;100.00
45403;BME280;47427;51.976;5.326;2024-01-30T03:21:13;102455.09;;;6.76;100.00
45403;BME280;47427;51.976;5.326;2024-01-30T03:24:17;102453.69;;;6.81;100.00
45403;BME280;47427;51.976;5.326;2024-01-30T03:27:19;102463.72;;;6.88;100.00
45403;BME280;47427;51.976;5.326;2024-01-30T03:30:22;102457.59;;;6.88;100.00
45403;BME280;47427;51.976;5.326;2024-01-30T03:33:24;102436.41;;;6.83;100.00
45403;BME280;47427;51.976;5.326;2024-01-30T03:36:27;102451.34;;;6.86;100.00
45403;BME280;47427;51.976;5.326;2024-01-30T03:39:30;102444.34;;;6.85;100.00
45403;BME280;47427;51.976;5.326;2024-01-30T03:42:33;102441.22;;;6.90;100.00
45403;BME280;47427;51.976;5.326;2024-01-30T03:45:34;102445.56;;;6.90;100.00
45403;BME280;47427;51.976;5.326;2024-01-30T03:48:37;102450.47;;;6.99;100.00
45403;BME280;47427;51.976;5.326;2024-01-30T03:51:40;102440.16;;;7.00;100.00
45403;BME280;47427;51.976;5.326;2024-01-30T03:54:43;102440.34;;;7.03;100.00
45403;BME280;47427;51.976;5.326;2024-01-30T03:57:44;102453.31;;;7.02;100.00
45403;BME280;47427;51.976;5.326;2024-01-30T04:00:47;102439.44;;;7.03;100.00
45403;BME280;47427;51.976;5.326;2024-01-30T04:03:50;102444.97;;;7.07;100.00
45403;BME280;47427;51.976;5.326;2024-01-30T04:06:53;102445.06;;;7.09;100.00
45403;BME280;47427;51.976;5.326;2024-01-30T04:09:54;102452.59;;;7.04;100.00
45403;BME280;47427;51.976;5.326;2024-01-30T04:12:59;102445.38;;;7.00;100.00
45403;BME280;47427;51.976;5.326;2024-01-30T04:16:03;102453.00;;;6.97;100.00
45403;BME280;47427;51.976;5.326;2024-01-30T04:19:05;102450.97;;;6.93;100.00
45403;BME280;47427;51.976;5.326;2024-01-30T04:22:07;102450.78;;;6.90;100.00
45403;BME280;47427;51.976;5.326;2024-01-30T04:25:10;102430.41;;;6.84;100.00
45403;BME280;47427;51.976;5.326;2024-01-30T04:28:13;102428.19;;;6.90;100.00
45403;BME280;47427;51.976;5.326;2024-01-30T04:31:16;102427.28;;;6.90;100.00
45403;BME280;47427;51.976;5.326;2024-01-30T04:34:19;102420.69;;;6.95;100.00
45403;BME280;47427;51.976;5.326;2024-01-30T04:37:21;102418.25;;;6.98;100.00
45403;BME280;47427;51.976;5.326;2024-01-30T04:40:24;102422.88;;;7.02;100.00
45403;BME280;47427;51.976;5.326;2024-01-30T04:43:27;102407.81;;;6.98;100.00
45403;BME280;47427;51.976;5.326;2024-01-30T04:46:30;102424.09;;;7.07;100.00
45403;BME280;47427;51.976;5.326;2024-01-30T04:49:32;102416.47;;;7.10;100.00
45403;BME280;47427;51.976;5.326;2024-01-30T04:52:35;102423.59;;;7.13;100.00
45403;BME280;47427;51.976;5.326;2024-01-30T04:55:38;102417.06;;;7.06;100.00
45403;BME280;47427;51.976;5.326;2024-01-30T04:58:41;102418.69;;;7.04;100.00
45403;BME280;47427;51.976;5.326;2024-01-30T05:01:42;102423.28;;;7.08;100.00
45403;BME280;47427;51.976;5.326;2024-01-30T05:04:44;102414.03;;;7.13;100.00
45403;BME280;47427;51.976;5.326;2024-01-30T05:07:46;102424.59;;;7.15;100.00
45403;BME280;47427;51.976;5.326;2024-01-30T05:10:49;102418.47;;;7.14;100.00
45403;BME280;47427;51.976;5.326;2024-01-30T05:13:51;102411.53;;;7.15;100.00
45403;BME280;47427;51.976;5.326;2024-01-30T05:16:53;102411.22;;;7.24;100.00
45403;BME280;47427;51.976;5.326;2024-01-30T05:19:56;102409.03;;;7.30;100.00
45403;BME280;47427;51.976;5.326;2024-01-30T05:22:59;102395.97;;;7.30;100.00
45403;BME280;47427;51.976;5.326;2024-01-30T05:26:01;102396.47;;;7.37;100.00
45403;BME280;47427;51.976;5.326;2024-01-30T05:29:06;102392.84;;;7.35;100.00
45403;BME280;47427;51.976;5.326;2024-01-30T05:32:09;102404.59;;;7.42;100.00
45403;BME280;47427;51.976;5.326;2024-01-30T05:35:31;102393.34;;;7.43;100.00
45403;BME280;47427;51.976;5.326;2024-01-30T05:38:37;102390.72;;;7.43;100.00
45403;BME280;47427;51.976;5.326;2024-01-30T05:41:40;102403.19;;;7.47;100.00
45403;BME280;47427;51.976;5.326;2024-01-30T05:44:43;102399.75;;;7.48;100.00
45403;BME280;47427;51.976;5.326;2024-01-30T05:47:46;102405.16;;;7.51;100.00
45403;BME280;47427;51.976;5.326;2024-01-30T05:50:47;102415.53;;;7.50;100.00
45403;BME280;47427;51.976;5.326;2024-01-30T05:53:50;102407.69;;;7.50;100.00
45403;BME280;47427;51.976;5.326;2024-01-30T05:56:53;102405.97;;;7.50;100.00
45403;BME280;47427;51.976;5.326;2024-01-30T05:59:56;102404.97;;;7.48;100.00
45403;BME280;47427;51.976;5.326;2024-01-30T06:02:57;102407.88;;;7.53;100.00
45403;BME280;47427;51.976;5.326;2024-01-30T06:06:00;102408.25;;;7.59;100.00
45403;BME280;47427;51.976;5.326;2024-01-30T06:09:03;102409.44;;;7.64;100.00
45403;BME280;47427;51.976;5.326;2024-01-30T06:12:06;102416.41;;;7.64;100.00
45403;BME280;47427;51.976;5.326;2024-01-30T06:15:08;102426.94;;;7.65;100.00
45403;BME280;47427;51.976;5.326;2024-01-30T06:18:11;102414.06;;;7.68;100.00
45403;BME280;47427;51.976;5.326;2024-01-30T06:21:14;102414.06;;;7.68;100.00
45403;BME280;47427;51.976;5.326;2024-01-30T06:24:17;102419.31;;;7.68;100.00
45403;BME280;47427;51.976;5.326;2024-01-30T06:27:20;102422.28;;;7.74;100.00
45403;BME280;47427;51.976;5.326;2024-01-30T06:30:23;102424.81;;;7.73;100.00
45403;BME280;47427;51.976;5.326;2024-01-30T06:33:25;102437.38;;;7.78;100.00
45403;BME280;47427;51.976;5.326;2024-01-30T06:36:28;102429.63;;;7.80;100.00
45403;BME280;47427;51.976;5.326;2024-01-30T06:39:31;102422.69;;;7.80;100.00
45403;BME280;47427;51.976;5.326;2024-01-30T06:42:32;102424.78;;;7.86;100.00
45403;BME280;47427;51.976;5.326;2024-01-30T06:45:35;102426.78;;;7.90;100.00
45403;BME280;47427;51.976;5.326;2024-01-30T06:48:38;102428.56;;;7.91;100.00
45403;BME280;47427;51.976;5.326;2024-01-30T06:51:42;102425.53;;;7.98;100.00
45403;BME280;47427;51.976;5.326;2024-01-30T06:54:44;102440.88;;;8.07;100.00
45403;BME280;47427;51.976;5.326;2024-01-30T06:57:47;102438.75;;;8.15;100.00
45403;BME280;47427;51.976;5.326;2024-01-30T07:00:49;102440.50;;;8.29;100.00
45403;BME280;47427;51.976;5.326;2024-01-30T07:03:52;102432.66;;;8.29;100.00
45403;BME280;47427;51.976;5.326;2024-01-30T07:06:54;102439.50;;;8.27;100.00
45403;BME280;47427;51.976;5.326;2024-01-30T07:09:59;102442.91;;;8.39;100.00
45403;BME280;47427;51.976;5.326;2024-01-30T07:13:04;102442.91;;;8.54;100.00
45403;BME280;47427;51.976;5.326;2024-01-30T07:16:08;102445.81;;;8.59;100.00
45403;BME280;47427;51.976;5.326;2024-01-30T07:19:11;102437.59;;;8.67;100.00
45403;BME280;47427;51.976;5.326;2024-01-30T07:22:12;102449.53;;;8.77;100.00
45403;BME280;47427;51.976;5.326;2024-01-30T07:25:15;102459.81;;;8.89;100.00
45403;BME280;47427;51.976;5.326;2024-01-30T07:28:19;102444.84;;;8.86;100.00
45403;BME280;47427;51.976;5.326;2024-01-30T07:31:23;102447.19;;;8.82;100.00
45403;BME280;47427;51.976;5.326;2024-01-30T07:34:24;102446.06;;;8.78;100.00
45403;BME280;47427;51.976;5.326;2024-01-30T07:37:28;102452.41;;;8.82;100.00
45403;BME280;47427;51.976;5.326;2024-01-30T07:40:31;102466.94;;;8.92;100.00
45403;BME280;47427;51.976;5.326;2024-01-30T07:43:36;102470.97;;;9.01;100.00
45403;BME280;47427;51.976;5.326;2024-01-30T07:46:37;102471.69;;;9.14;100.00
45403;BME280;47427;51.976;5.326;2024-01-30T07:49:41;102470.47;;;9.22;100.00
45403;BME280;47427;51.976;5.326;2024-01-30T07:52:43;102472.59;;;9.29;100.00
45403;BME280;47427;51.976;5.326;2024-01-30T07:55:47;102482.72;;;9.38;100.00
45403;BME280;47427;51.976;5.326;2024-01-30T07:58:48;102479.44;;;9.42;100.00
45403;BME280;47427;51.976;5.326;2024-01-30T08:02:04;102490.34;;;9.49;100.00
45403;BME280;47427;51.976;5.326;2024-01-30T08:05:08;102488.91;;;9.54;100.00
45403;BME280;47427;51.976;5.326;2024-01-30T08:08:13;102485.16;;;9.66;100.00
45403;BME280;47427;51.976;5.326;2024-01-30T08:11:15;102480.25;;;9.72;100.00
45403;BME280;47427;51.976;5.326;2024-01-30T08:14:18;102475.81;;;9.86;100.00
45403;BME280;47427;51.976;5.326;2024-01-30T08:17:21;102481.00;;;10.01;100.00
45403;BME280;47427;51.976;5.326;2024-01-30T08:20:25;102486.50;;;10.22;100.00
45403;BME280;47427;51.976;5.326;2024-01-30T08:23:26;102470.75;;;10.38;100.00
45403;BME280;47427;51.976;5.326;2024-01-30T08:26:29;102474.63;;;10.45;100.00
45403;BME280;47427;51.976;5.326;2024-01-30T08:29:32;102475.19;;;10.55;100.00
45403;BME280;47427;51.976;5.326;2024-01-30T08:32:36;102481.66;;;10.62;100.00
45403;BME280;47427;51.976;5.326;2024-01-30T08:35:37;102471.31;;;10.65;100.00
45403;BME280;47427;51.976;5.326;2024-01-30T08:38:41;102472.56;;;10.72;100.00
45403;BME280;47427;51.976;5.326;2024-01-30T08:41:43;102478.94;;;10.77;100.00
45403;BME280;47427;51.976;5.326;2024-01-30T08:44:47;102480.22;;;10.85;100.00
45403;BME280;47427;51.976;5.326;2024-01-30T08:47:50;102470.94;;;10.92;100.00
45403;BME280;47427;51.976;5.326;2024-01-30T08:50:53;102463.88;;;10.91;100.00
45403;BME280;47427;51.976;5.326;2024-01-30T08:53:56;102486.19;;;10.99;100.00
45403;BME280;47427;51.976;5.326;2024-01-30T08:56:58;102478.84;;;11.10;100.00
45403;BME280;47427;51.976;5.326;2024-01-30T09:00:01;102474.13;;;11.20;100.00
45403;BME280;47427;51.976;5.326;2024-01-30T09:03:07;102486.50;;;11.23;100.00
45403;BME280;47427;51.976;5.326;2024-01-30T09:06:10;102486.22;;;11.35;100.00
45403;BME280;47427;51.976;5.326;2024-01-30T09:09:13;102494.31;;;11.39;100.00
45403;BME280;47427;51.976;5.326;2024-01-30T09:12:17;102487.72;;;11.47;100.00
45403;BME280;47427;51.976;5.326;2024-01-30T09:15:18;102492.84;;;11.62;100.00
45403;BME280;47427;51.976;5.326;2024-01-30T09:18:21;102489.59;;;11.68;100.00
45403;BME280;47427;51.976;5.326;2024-01-30T09:21:25;102493.13;;;11.68;100.00
45403;BME280;47427;51.976;5.326;2024-01-30T09:24:28;102498.47;;;11.70;100.00
45403;BME280;47427;51.976;5.326;2024-01-30T09:27:29;102497.47;;;11.68;100.00
45403;BME280;47427;51.976;5.326;2024-01-30T09:30:34;102496.59;;;11.67;100.00
45403;BME280;47427;51.976;5.326;2024-01-30T09:33:38;102498.28;;;11.67;100.00
45403;BME280;47427;51.976;5.326;2024-01-30T09:36:41;102498.63;;;11.55;100.00
45403;BME280;47427;51.976;5.326;2024-01-30T09:39:43;102510.50;;;11.47;100.00
45403;BME280;47427;51.976;5.326;2024-01-30T09:42:47;102504.81;;;11.39;100.00
45403;BME280;47427;51.976;5.326;2024-01-30T09:45:54;102512.66;;;11.38;100.00
45403;BME280;47427;51.976;5.326;2024-01-30T09:48:58;102527.97;;;11.46;100.00
45403;BME280;47427;51.976;5.326;2024-01-30T09:52:03;102516.94;;;11.54;100.00
45403;BME280;47427;51.976;5.326;2024-01-30T09:55:08;102533.44;;;11.51;100.00
45403;BME280;47427;51.976;5.326;2024-01-30T09:58:12;102524.81;;;11.54;100.00
45403;BME280;47427;51.976;5.326;2024-01-30T10:01:17;102520.31;;;11.51;100.00
45403;BME280;47427;51.976;5.326;2024-01-30T10:04:20;102525.13;;;11.60;100.00
45403;BME280;47427;51.976;5.326;2024-01-30T10:07:23;102526.84;;;11.59;100.00
45403;BME280;47427;51.976;5.326;2024-01-30T10:10:25;102530.59;;;11.64;100.00
45403;BME280;47427;51.976;5.326;2024-01-30T10:13:28;102526.41;;;11.68;100.00
45403;BME280;47427;51.976;5.326;2024-01-30T10:16:30;102523.53;;;11.81;100.00
45403;BME280;47427;51.976;5.326;2024-01-30T10:19:33;102520.16;;;12.02;100.00
45403;BME280;47427;51.976;5.326;2024-01-30T10:22:36;102524.97;;;12.30;100.00
45403;BME280;47427;51.976;5.326;2024-01-30T10:25:38;102529.41;;;12.50;100.00
45403;BME280;47427;51.976;5.326;2024-01-30T10:28:41;102514.03;;;12.60;100.00
45403;BME280;47427;51.976;5.326;2024-01-30T10:31:43;102525.25;;;14.25;100.00
45403;BME280;47427;51.976;5.326;2024-01-30T10:34:45;102544.81;;;15.79;100.00
45403;BME280;47427;51.976;5.326;2024-01-30T10:37:48;102524.25;;;15.17;100.00
45403;BME280;47427;51.976;5.326;2024-01-30T10:40:53;102512.91;;;14.24;100.00
45403;BME280;47427;51.976;5.326;2024-01-30T10:44:05;102530.41;;;15.18;100.00
45403;BME280;47427;51.976;5.326;2024-01-30T10:47:12;102522.00;;;14.32;100.00
45403;BME280;47427;51.976;5.326;2024-01-30T10:50:18;102521.81;;;13.37;100.00
45403;BME280;47427;51.976;5.326;2024-01-30T10:53:22;102529.53;;;13.13;100.00
45403;BME280;47427;51.976;5.326;2024-01-30T10:56:28;102551.03;;;12.82;100.00
45403;BME280;47427;51.976;5.326;2024-01-30T10:59:31;102534.41;;;12.64;100.00
45403;BME280;47427;51.976;5.326;2024-01-30T11:02:35;102544.66;;;12.77;100.00
45403;BME280;47427;51.976;5.326;2024-01-30T11:05:41;102545.63;;;12.79;100.00
45403;BME280;47427;51.976;5.326;2024-01-30T11:08:45;102543.94;;;13.21;100.00
45403;BME280;47427;51.976;5.326;2024-01-30T11:11:51;102547.31;;;13.38;100.00
45403;BME280;47427;51.976;5.326;2024-01-30T11:15:11;102558.06;;;13.02;100.00
45403;BME280;47427;51.976;5.326;2024-01-30T11:18:25;102547.88;;;12.91;100.00
45403;BME280;47427;51.976;5.326;2024-01-30T11:21:28;102551.50;;;12.93;100.00
45403;BME280;47427;51.976;5.326;2024-01-30T11:24:40;102569.06;;;13.13;100.00
45403;BME280;47427;51.976;5.326;2024-01-30T11:27:46;102571.25;;;13.23;100.00
45403;BME280;47427;51.976;5.326;2024-01-30T11:30:51;102559.56;;;13.57;100.00
45403;BME280;47427;51.976;5.326;2024-01-30T11:34:03;102561.16;;;13.33;100.00
45403;BME280;47427;51.976;5.326;2024-01-30T11:37:10;102550.63;;;13.13;100.00
45403;BME280;47427;51.976;5.326;2024-01-30T11:40:14;102545.41;;;12.94;100.00
45403;BME280;47427;51.976;5.326;2024-01-30T11:43:17;102548.59;;;12.67;100.00
45403;BME280;47427;51.976;5.326;2024-01-30T11:46:19;102556.78;;;12.54;100.00
45403;BME280;47427;51.976;5.326;2024-01-30T11:49:21;102553.03;;;12.29;100.00
45403;BME280;47427;51.976;5.326;2024-01-30T11:52:24;102575.16;;;11.97;100.00
45403;BME280;47427;51.976;5.326;2024-01-30T11:55:29;102579.69;;;12.00;100.00
45403;BME280;47427;51.976;5.326;2024-01-30T11:58:33;102583.03;;;12.15;100.00
45403;BME280;47427;51.976;5.326;2024-01-30T12:01:34;102582.41;;;12.77;100.00
45403;BME280;47427;51.976;5.326;2024-01-30T12:04:36;102579.78;;;12.58;100.00
45403;BME280;47427;51.976;5.326;2024-01-30T12:07:39;102600.06;;;13.59;100.00
45403;BME280;47427;51.976;5.326;2024-01-30T12:10:42;102607.91;;;13.37;100.00
45403;BME280;47427;51.976;5.326;2024-01-30T12:13:44;102599.84;;;13.34;100.00
45403;BME280;47427;51.976;5.326;2024-01-30T12:16:48;102592.66;;;12.91;100.00
45403;BME280;47427;51.976;5.326;2024-01-30T12:20:06;102593.44;;;12.88;100.00
45403;BME280;47427;51.976;5.326;2024-01-30T12:23:12;102594.41;;;12.71;100.00
45403;BME280;47427;51.976;5.326;2024-01-30T12:26:15;102604.00;;;12.31;100.00
45403;BME280;47427;51.976;5.326;2024-01-30T12:29:17;102606.31;;;11.71;100.00
45403;BME280;47427;51.976;5.326;2024-01-30T12:32:20;102632.66;;;11.37;100.00
45403;BME280;47427;51.976;5.326;2024-01-30T12:35:23;102622.94;;;11.02;100.00
45403;BME280;47427;51.976;5.326;2024-01-30T12:38:26;102625.06;;;10.76;100.00
45403;BME280;47427;51.976;5.326;2024-01-30T12:41:28;102621.00;;;10.50;100.00
45403;BME280;47427;51.976;5.326;2024-01-30T12:44:50;102645.59;;;10.36;100.00
45403;BME280;47427;51.976;5.326;2024-01-30T12:47:52;102648.69;;;10.29;100.00
45403;BME280;47427;51.976;5.326;2024-01-30T12:50:56;102644.34;;;10.14;100.00
45403;BME280;47427;51.976;5.326;2024-01-30T12:53:58;102643.00;;;10.06;100.00
45403;BME280;47427;51.976;5.326;2024-01-30T12:57:00;102653.78;;;9.96;100.00
45403;BME280;47427;51.976;5.326;2024-01-30T13:00:04;102656.13;;;9.91;100.00
45403;BME280;47427;51.976;5.326;2024-01-30T13:03:25;102644.59;;;9.88;100.00
45403;BME280;47427;51.976;5.326;2024-01-30T13:06:28;102650.00;;;9.91;100.00
45403;BME280;47427;51.976;5.326;2024-01-30T13:09:31;102643.94;;;9.92;100.00
45403;BME280;47427;51.976;5.326;2024-01-30T13:12:37;102654.84;;;9.99;100.00
45403;BME280;47427;51.976;5.326;2024-01-30T13:15:41;102651.16;;;10.11;100.00
45403;BME280;47427;51.976;5.326;2024-01-30T13:18:44;102637.78;;;10.23;100.00
45403;BME280;47427;51.976;5.326;2024-01-30T13:21:47;102642.72;;;10.48;100.00
45403;BME280;47427;51.976;5.326;2024-01-30T13:24:50;102639.72;;;10.73;100.00
45403;BME280;47427;51.976;5.326;2024-01-30T13:27:53;102642.38;;;11.05;100.00
45403;BME280;47427;51.976;5.326;2024-01-30T13:30:55;102647.94;;;10.95;100.00
45403;BME280;47427;51.976;5.326;2024-01-30T13:33:58;102647.38;;;10.84;100.00
45403;BME280;47427;51.976;5.326;2024-01-30T13:37:01;102645.41;;;10.80;100.00
45403;BME280;47427;51.976;5.326;2024-01-30T13:40:05;102652.97;;;10.74;100.00
45403;BME280;47427;51.976;5.326;2024-01-30T13:43:08;102662.34;;;10.54;100.00
45403;BME280;47427;51.976;5.326;2024-01-30T13:46:11;102659.50;;;10.35;100.00
45403;BME280;47427;51.976;5.326;2024-01-30T13:49:14;102665.31;;;10.29;100.00
45403;BME280;47427;51.976;5.326;2024-01-30T13:52:17;102663.13;;;10.37;100.00
45403;BME280;47427;51.976;5.326;2024-01-30T13:55:18;102673.63;;;10.37;100.00
45403;BME280;47427;51.976;5.326;2024-01-30T13:58:22;102677.38;;;10.11;100.00
45403;BME280;47427;51.976;5.326;2024-01-30T14:01:25;102666.19;;;9.84;100.00
45403;BME280;47427;51.976;5.326;2024-01-30T14:04:28;102678.56;;;9.86;100.00
45403;BME280;47427;51.976;5.326;2024-01-30T14:07:29;102691.03;;;9.75;100.00
45403;BME280;47427;51.976;5.326;2024-01-30T14:10:32;102684.63;;;9.70;100.00
45403;BME280;47427;51.976;5.326;2024-01-30T14:13:35;102689.13;;;9.58;100.00
45403;BME280;47427;51.976;5.326;2024-01-30T14:16:38;102693.28;;;9.69;100.00
45403;BME280;47427;51.976;5.326;2024-01-30T14:19:39;102703.16;;;9.88;100.00
45403;BME280;47427;51.976;5.326;2024-01-30T14:22:42;102703.31;;;9.76;100.00
45403;BME280;47427;51.976;5.326;2024-01-30T14:25:45;102705.06;;;9.76;100.00
45403;BME280;47427;51.976;5.326;2024-01-30T14:28:48;102706.13;;;9.80;100.00
45403;BME280;47427;51.976;5.326;2024-01-30T14:31:51;102700.81;;;9.78;100.00
45403;BME280;47427;51.976;5.326;2024-01-30T14:34:53;102715.97;;;9.69;100.00
45403;BME280;47427;51.976;5.326;2024-01-30T14:37:55;102713.44;;;9.55;100.00
45403;BME280;47427;51.976;5.326;2024-01-30T14:40:59;102715.25;;;9.57;100.00
45403;BME280;47427;51.976;5.326;2024-01-30T14:44:02;102708.81;;;9.51;100.00
45403;BME280;47427;51.976;5.326;2024-01-30T14:47:04;102723.78;;;9.39;100.00
45403;BME280;47427;51.976;5.326;2024-01-30T14:50:07;102713.19;;;9.23;100.00
45403;BME280;47427;51.976;5.326;2024-01-30T14:53:10;102720.16;;;9.22;100.00
45403;BME280;47427;51.976;5.326;2024-01-30T14:56:13;102722.59;;;9.19;100.00
45403;BME280;47427;51.976;5.326;2024-01-30T14:59:15;102735.00;;;9.08;100.00
45403;BME280;47427;51.976;5.326;2024-01-30T15:02:18;102747.31;;;8.96;100.00
45403;BME280;47427;51.976;5.326;2024-01-30T15:05:20;102744.72;;;8.83;100.00
45403;BME280;47427;51.976;5.326;2024-01-30T15:08:23;102749.47;;;8.75;100.00
45403;BME280;47427;51.976;5.326;2024-01-30T15:11:25;102753.81;;;8.75;100.00
45403;BME280;47427;51.976;5.326;2024-01-30T15:14:27;102761.38;;;8.70;100.00
45403;BME280;47427;51.976;5.326;2024-01-30T15:17:30;102760.88;;;8.62;100.00
45403;BME280;47427;51.976;5.326;2024-01-30T15:20:33;102763.81;;;8.54;100.00
45403;BME280;47427;51.976;5.326;2024-01-30T15:23:35;102762.19;;;8.42;100.00
45403;BME280;47427;51.976;5.326;2024-01-30T15:26:38;102772.75;;;8.44;100.00
45403;BME280;47427;51.976;5.326;2024-01-30T15:29:40;102780.50;;;8.42;100.00
45403;BME280;47427;51.976;5.326;2024-01-30T15:32:44;102767.13;;;8.51;100.00
45403;BME280;47427;51.976;5.326;2024-01-30T15:35:45;102786.53;;;8.55;100.00
45403;BME280;47427;51.976;5.326;2024-01-30T15:38:48;102777.38;;;8.48;100.00
45403;BME280;47427;51.976;5.326;2024-01-30T15:41:51;102793.69;;;8.44;100.00
45403;BME280;47427;51.976;5.326;2024-01-30T15:44:55;102798.59;;;8.39;100.00
45403;BME280;47427;51.976;5.326;2024-01-30T15:47:58;102801.25;;;8.28;100.00
45403;BME280;47427;51.976;5.326;2024-01-30T15:50:59;102814.25;;;8.26;100.00
45403;BME280;47427;51.976;5.326;2024-01-30T15:54:02;102815.28;;;8.28;100.00
45403;BME280;47427;51.976;5.326;2024-01-30T15:57:05;102819.88;;;8.19;100.00